Time;durP1;ratioP1;P1;durP2;ratioP2;P2;SDS_P1;SDS_P2;PMS_P1;PMS_P2;Temp;Humidity;BMP_temperature;BMP_pressure;BME280_temperature;BME280_humidity;BME280_pressure;Samples;Min_cycle;Max_cycle;Signal;HPM_P1;HPM_P2
2023/07/05 00:02:12;;;;;;;3.70;3.50;;;23.50;41.10;;;;;;4991067;28;20226;-66
2023/07/05 00:04:37;;;;;;;3.70;3.40;;;23.50;41.10;;;;;;4991438;28;20441;-65
2023/07/05 00:07:03;;;;;;;3.20;2.90;;;23.50;41.10;;;;;;4993164;28;20226;-67
2023/07/05 00:09:28;;;;;;;3.10;2.90;;;23.50;41.10;;;;;;4988259;28;21461;-67
2023/07/05 00:11:56;;;;;;;4.50;3.80;;;23.50;41.10;;;;;;4991196;28;20216;-66
2023/07/05 00:14:21;;;;;;;3.90;3.70;;;23.50;41.10;;;;;;4991536;28;20645;-66
2023/07/05 00:16:47;;;;;;;3.80;3.60;;;23.50;41.10;;;;;;4991325;28;20468;-66
2023/07/05 00:19:13;;;;;;;3.67;3.47;;;23.50;41.20;;;;;;4992326;28;20255;-66
2023/07/05 00:21:39;;;;;;;3.87;3.67;;;23.50;41.10;;;;;;4986463;28;20293;-66
2023/07/05 00:24:04;;;;;;;3.70;3.50;;;23.50;41.10;;;;;;4991211;28;20893;-66
2023/07/05 00:26:30;;;;;;;4.23;4.03;;;23.50;41.20;;;;;;4993695;28;20223;-65
2023/07/05 00:28:55;;;;;;;2.90;2.70;;;23.50;41.10;;;;;;4991109;28;20311;-66
2023/07/05 00:31:21;;;;;;;3.47;3.27;;;23.50;41.20;;;;;;4991965;28;20224;-66
2023/07/05 00:33:47;;;;;;;3.60;3.40;;;23.50;41.20;;;;;;4990299;28;20232;-67
2023/07/05 00:36:13;;;;;;;3.43;3.27;;;23.50;41.20;;;;;;4994230;28;20943;-66
2023/07/05 00:38:38;;;;;;;3.53;3.23;;;23.50;41.20;;;;;;4990390;28;20467;-67
2023/07/05 00:41:04;;;;;;;6.27;3.30;;;23.50;41.20;;;;;;4973242;28;20643;-66
2023/07/05 00:43:30;;;;;;;3.30;3.10;;;23.50;41.20;;;;;;4990638;28;20231;-67
2023/07/05 00:46:05;;;;;;;3.83;3.63;;;23.50;41.20;;;;;;4992091;28;20235;-66
2023/07/05 00:48:55;;;;;;;3.50;3.30;;;23.50;41.20;;;;;;4990986;28;20228;-66
2023/07/05 00:51:28;;;;;;;3.33;3.13;;;23.50;41.30;;;;;;4990135;28;20477;-66
2023/07/05 00:53:57;;;;;;;3.47;3.27;;;23.50;41.30;;;;;;4993851;28;20522;-67
2023/07/05 00:56:33;;;;;;;3.43;2.97;;;23.50;41.20;;;;;;4992527;28;20544;-66
2023/07/05 00:58:59;;;;;;;3.33;3.13;;;23.50;41.30;;;;;;4990267;28;20466;-66
2023/07/05 01:01:26;;;;;;;3.40;3.20;;;23.50;41.50;;;;;;4990201;28;20491;-66
2023/07/05 01:03:54;;;;;;;3.40;3.20;;;23.50;41.40;;;;;;4986960;28;20469;-66
2023/07/05 01:06:22;;;;;;;3.00;2.80;;;23.50;41.30;;;;;;4992424;28;20475;-66
2023/07/05 01:08:50;;;;;;;2.90;2.77;;;23.50;41.30;;;;;;4995072;28;20545;-66
2023/07/05 01:11:59;;;;;;;2.60;2.50;;;23.50;41.30;;;;;;4994418;28;20467;-66
2023/07/05 01:14:44;;;;;;;3.33;3.13;;;23.50;41.30;;;;;;4938817;28;20886;-65
2023/07/05 01:17:18;;;;;;;3.07;2.87;;;23.50;41.40;;;;;;4992658;28;20487;-66
2023/07/05 01:20:03;;;;;;;3.17;2.97;;;23.50;41.50;;;;;;4992838;28;20481;-66
2023/07/05 01:22:59;;;;;;;4.40;2.93;;;23.50;41.60;;;;;;4997220;28;20492;-66
2023/07/05 01:26:07;;;;;;;3.30;3.10;;;23.50;41.50;;;;;;4991799;28;20466;-66
2023/07/05 01:28:57;;;;;;;3.17;2.97;;;23.50;41.60;;;;;;4995687;28;20964;-67
2023/07/05 01:31:53;;;;;;;3.30;3.10;;;23.50;41.50;;;;;;4987047;28;20487;-67
2023/07/05 01:34:27;;;;;;;2.37;2.27;;;23.50;41.60;;;;;;4993695;28;21151;-66
2023/07/05 01:36:53;;;;;;;3.20;3.00;;;23.40;41.50;;;;;;4996771;28;20499;-66
2023/07/05 01:39:18;;;;;;;2.40;2.30;;;23.50;41.60;;;;;;4995765;28;20524;-66
2023/07/05 01:41:44;;;;;;;3.13;2.73;;;23.50;41.70;;;;;;4998565;28;20227;-67
2023/07/05 01:44:12;;;;;;;2.73;2.53;;;23.50;41.60;;;;;;4998131;28;20220;-67
2023/07/05 01:46:49;;;;;;;2.70;2.50;;;23.50;41.60;;;;;;4999074;28;20281;-66
2023/07/05 01:49:39;;;;;;;2.90;2.70;;;23.50;41.60;;;;;;4994524;28;20531;-66
2023/07/05 01:52:13;;;;;;;2.70;2.60;;;23.50;41.60;;;;;;4998065;28;20607;-66
2023/07/05 01:54:54;;;;;;;2.63;2.43;;;23.50;41.60;;;;;;4998594;28;20550;-66
2023/07/05 01:57:27;;;;;;;2.70;2.50;;;23.50;41.70;;;;;;4999018;28;20821;-66
2023/07/05 02:00:15;;;;;;;3.30;3.10;;;23.50;41.70;;;;;;4996761;28;20526;-66
2023/07/05 02:02:52;;;;;;;2.23;2.13;;;23.50;41.70;;;;;;4996448;28;20464;-66
2023/07/05 02:05:19;;;;;;;4.77;3.00;;;23.50;41.70;;;;;;5000087;28;20468;-66
2023/07/05 02:07:45;;;;;;;2.90;2.70;;;23.50;41.80;;;;;;5000720;28;20440;-66
2023/07/05 02:10:11;;;;;;;2.50;2.40;;;23.50;41.70;;;;;;4997996;28;20484;-66
2023/07/05 02:12:36;;;;;;;2.40;2.30;;;23.50;41.70;;;;;;4997697;28;20745;-65
2023/07/05 02:15:02;;;;;;;2.50;2.40;;;23.50;41.70;;;;;;4999653;28;20231;-65
2023/07/05 02:17:28;;;;;;;2.80;2.60;;;23.50;41.80;;;;;;4996663;28;20223;-66
2023/07/05 02:19:53;;;;;;;2.70;2.60;;;23.50;41.70;;;;;;4998083;28;20270;-66
2023/07/05 02:22:19;;;;;;;2.83;2.63;;;23.50;41.80;;;;;;4998431;28;20227;-67
2023/07/05 02:24:46;;;;;;;2.30;2.13;;;23.50;41.80;;;;;;4991333;28;20211;-66
2023/07/05 02:27:12;;;;;;;2.23;2.03;;;23.50;41.80;;;;;;4977730;28;20227;-66
2023/07/05 02:29:37;;;;;;;2.47;2.37;;;23.50;41.80;;;;;;4992174;28;20456;-66
2023/07/05 02:32:03;;;;;;;2.30;2.20;;;23.50;41.80;;;;;;4993474;28;20231;-66
2023/07/05 02:34:29;;;;;;;1.97;1.87;;;23.50;41.80;;;;;;4997500;28;20227;-66
2023/07/05 02:36:55;;;;;;;2.30;2.20;;;23.50;41.90;;;;;;4995959;28;20270;-67
2023/07/05 02:39:20;;;;;;;2.00;1.90;;;23.50;41.90;;;;;;4991253;28;21159;-65
2023/07/05 02:41:46;;;;;;;2.00;1.70;;;23.50;42.00;;;;;;4993955;28;20216;-66
2023/07/05 02:44:11;;;;;;;1.90;1.80;;;23.50;41.90;;;;;;4994398;28;20624;-66
2023/07/05 02:46:37;;;;;;;1.93;1.83;;;23.40;41.90;;;;;;4993026;28;20277;-66
2023/07/05 02:49:03;;;;;;;2.10;2.00;;;23.50;42.20;;;;;;4992672;28;20706;-66
2023/07/05 02:51:32;;;;;;;2.20;2.10;;;23.50;42.30;;;;;;4993665;28;20223;-66
2023/07/05 02:53:57;;;;;;;1.90;1.80;;;23.50;42.30;;;;;;4992678;28;20582;-66
2023/07/05 02:56:24;;;;;;;2.00;1.90;;;23.50;42.30;;;;;;4990692;28;20532;-66
2023/07/05 02:58:50;;;;;;;2.00;1.90;;;23.40;42.20;;;;;;4993629;28;20648;-66
2023/07/05 03:01:15;;;;;;;2.03;1.93;;;23.40;42.20;;;;;;4988232;28;20461;-66
2023/07/05 03:03:41;;;;;;;2.00;1.90;;;23.50;42.30;;;;;;4993509;28;20234;-66
2023/07/05 03:06:06;;;;;;;1.97;1.70;;;23.40;42.20;;;;;;4993718;28;20220;-66
2023/07/05 03:08:32;;;;;;;2.03;1.93;;;23.40;42.20;;;;;;4998222;28;20273;-66
2023/07/05 03:10:59;;;;;;;1.80;1.70;;;23.50;42.30;;;;;;4997900;28;20223;-66
2023/07/05 03:13:33;;;;;;;1.67;1.57;;;23.50;42.30;;;;;;4995429;28;20231;-66
2023/07/05 03:15:59;;;;;;;2.20;1.80;;;23.40;42.20;;;;;;4991428;28;21020;-66
2023/07/05 03:18:26;;;;;;;1.63;1.53;;;23.50;42.30;;;;;;4992828;28;20611;-67
2023/07/05 03:20:52;;;;;;;1.57;1.47;;;23.40;42.20;;;;;;4995161;28;20461;-66
2023/07/05 03:23:18;;;;;;;1.50;1.40;;;23.40;42.20;;;;;;4993583;28;20468;-66
2023/07/05 03:25:58;;;;;;;1.53;1.30;;;23.40;42.20;;;;;;4992519;28;20331;-66
2023/07/05 03:28:25;;;;;;;1.70;1.60;;;23.40;42.20;;;;;;4995670;28;20967;-66
2023/07/05 03:31:02;;;;;;;2.00;1.90;;;23.40;42.20;;;;;;4992123;28;20476;-66
2023/07/05 03:33:30;;;;;;;1.67;1.57;;;23.40;42.20;;;;;;4994747;28;20484;-66
2023/07/05 03:36:05;;;;;;;1.80;1.60;;;23.40;42.20;;;;;;4996535;28;20978;-66
2023/07/05 03:38:33;;;;;;;1.50;1.40;;;23.40;42.20;;;;;;4998058;28;20446;-67
2023/07/05 03:41:04;;;;;;;1.53;1.43;;;23.40;42.20;;;;;;4994038;28;20590;-66
2023/07/05 03:43:32;;;;;;;1.50;1.40;;;23.40;42.20;;;;;;4980001;28;20452;-66
2023/07/05 03:45:59;;;;;;;1.50;1.40;;;23.40;42.20;;;;;;4996920;28;20453;-66
2023/07/05 03:48:26;;;;;;;1.50;1.40;;;23.40;42.10;;;;;;4997007;28;20442;-66
2023/07/05 03:50:57;;;;;;;1.70;1.60;;;23.40;42.10;;;;;;4995141;28;20460;-66
2023/07/05 03:53:24;;;;;;;1.33;1.20;;;23.40;41.90;;;;;;4997736;28;20972;-65
2023/07/05 03:55:50;;;;;;;1.70;1.60;;;23.40;41.80;;;;;;4998000;28;20498;-66
2023/07/05 03:58:16;;;;;;;1.70;1.60;;;23.40;41.70;;;;;;4996842;28;20470;-66
2023/07/05 04:00:41;;;;;;;1.30;1.20;;;23.40;41.60;;;;;;4997699;28;20531;-66
2023/07/05 04:03:07;;;;;;;1.60;1.50;;;23.40;41.60;;;;;;4994260;28;20223;-66
2023/07/05 04:05:33;;;;;;;1.40;1.30;;;23.40;41.60;;;;;;4994331;28;20720;-66
2023/07/05 04:07:59;;;;;;;1.40;1.30;;;23.40;41.50;;;;;;4998006;28;20511;-67
2023/07/05 04:10:24;;;;;;;1.47;1.37;;;23.40;41.30;;;;;;4994662;28;20497;-66
2023/07/05 04:12:50;;;;;;;1.80;1.70;;;23.40;41.30;;;;;;4994398;28;20553;-67
2023/07/05 04:15:16;;;;;;;1.60;1.50;;;23.40;41.30;;;;;;4996643;28;20289;-66
2023/07/05 04:17:41;;;;;;;1.50;1.40;;;23.40;41.20;;;;;;4996267;28;20230;-66
2023/07/05 04:20:07;;;;;;;1.53;1.43;;;23.40;41.10;;;;;;4993039;28;20234;-66
2023/07/05 04:22:35;;;;;;;1.60;1.50;;;23.40;41.00;;;;;;4997195;28;20323;-66
2023/07/05 04:25:01;;;;;;;1.77;1.67;;;23.40;41.00;;;;;;4995719;28;20457;-66
2023/07/05 04:27:26;;;;;;;1.67;1.57;;;23.40;41.00;;;;;;4996507;28;20539;-66
2023/07/05 04:29:52;;;;;;;1.60;1.50;;;23.40;41.00;;;;;;4995172;28;20231;-65
2023/07/05 04:32:18;;;;;;;1.50;1.40;;;23.40;40.90;;;;;;4992274;28;20702;-66
2023/07/05 04:34:43;;;;;;;1.40;1.30;;;23.40;40.80;;;;;;4988389;28;20235;-66
2023/07/05 04:37:09;;;;;;;1.40;1.30;;;23.40;40.80;;;;;;4988413;28;20331;-66
2023/07/05 04:39:35;;;;;;;2.07;1.87;;;23.40;40.80;;;;;;4989903;28;20307;-66
2023/07/05 04:42:00;;;;;;;1.70;1.60;;;23.40;40.70;;;;;;4973043;28;20226;-66
2023/07/05 04:44:26;;;;;;;1.60;1.50;;;23.40;40.60;;;;;;4984297;28;20469;-66
2023/07/05 04:46:52;;;;;;;1.63;1.53;;;23.40;40.60;;;;;;4991428;28;20223;-67
2023/07/05 04:49:17;;;;;;;1.60;1.50;;;23.40;40.50;;;;;;4983988;28;20383;-65
2023/07/05 04:51:43;;;;;;;1.40;1.30;;;23.40;40.50;;;;;;4991819;28;20223;-66
2023/07/05 04:54:08;;;;;;;1.80;1.70;;;23.40;40.30;;;;;;4987940;28;20737;-66
2023/07/05 04:56:34;;;;;;;4.23;1.63;;;23.40;40.30;;;;;;4990324;28;20223;-66
2023/07/05 04:58:59;;;;;;;3.10;1.50;;;23.40;40.20;;;;;;4992394;28;20227;-66
2023/07/05 05:01:25;;;;;;;1.50;1.40;;;23.50;40.30;;;;;;4979167;28;20820;-66
2023/07/05 05:03:51;;;;;;;1.33;1.20;;;23.40;40.10;;;;;;4989894;28;20219;-66
2023/07/05 05:06:17;;;;;;;1.83;1.60;;;23.50;40.10;;;;;;4990095;28;20490;-66
2023/07/05 05:08:42;;;;;;;1.83;1.57;;;23.50;40.10;;;;;;4988953;28;20681;-66
2023/07/05 05:11:08;;;;;;;1.30;1.20;;;23.50;40.10;;;;;;4992772;28;20233;-66
2023/07/05 05:13:35;;;;;;;1.80;1.33;;;23.50;40.00;;;;;;4988548;28;20253;-66
2023/07/05 05:16:01;;;;;;;1.70;1.60;;;23.50;40.00;;;;;;4994956;28;20227;-66
2023/07/05 05:18:32;;;;;;;1.60;1.50;;;23.50;39.90;;;;;;4995242;28;20523;-66
2023/07/05 05:20:58;;;;;;;1.60;1.50;;;23.50;39.80;;;;;;4997430;28;20457;-66
2023/07/05 05:23:24;;;;;;;1.70;1.60;;;23.50;39.80;;;;;;4993792;28;20501;-66
2023/07/05 05:25:50;;;;;;;1.90;1.80;;;23.50;39.80;;;;;;4990731;28;21472;-66
2023/07/05 05:28:17;;;;;;;2.10;2.00;;;23.40;39.60;;;;;;4996635;28;20452;-66
2023/07/05 05:30:43;;;;;;;2.43;1.90;;;23.50;39.70;;;;;;4995909;28;20520;-66
2023/07/05 05:33:09;;;;;;;1.70;1.60;;;23.50;39.70;;;;;;4992985;28;21032;-66
2023/07/05 05:35:35;;;;;;;1.70;1.60;;;23.50;39.70;;;;;;4998636;28;20440;-66
2023/07/05 05:38:02;;;;;;;1.70;1.60;;;23.50;39.70;;;;;;4998513;28;20808;-66
2023/07/05 05:40:28;;;;;;;1.73;1.63;;;23.50;39.70;;;;;;4999649;28;20220;-65
2023/07/05 05:42:53;;;;;;;3.20;1.90;;;23.40;39.50;;;;;;4996207;28;20512;-67
2023/07/05 05:45:19;;;;;;;1.80;1.70;;;23.40;39.50;;;;;;4995602;28;20277;-66
2023/07/05 05:47:44;;;;;;;1.60;1.50;;;23.40;39.50;;;;;;4996261;28;20235;-66
2023/07/05 05:50:10;;;;;;;2.40;1.60;;;23.40;39.60;;;;;;4992744;28;20303;-66
2023/07/05 05:52:36;;;;;;;2.47;2.37;;;23.50;39.60;;;;;;4992364;28;20230;-65
2023/07/05 05:55:03;;;;;;;1.80;1.70;;;23.50;39.60;;;;;;4988086;28;20305;-66
2023/07/05 05:57:28;;;;;;;1.60;1.50;;;23.50;39.50;;;;;;4995602;28;20229;-66
2023/07/05 05:59:54;;;;;;;2.43;1.80;;;23.40;39.40;;;;;;4991358;28;20460;-65
2023/07/05 06:02:20;;;;;;;1.60;1.50;;;23.50;39.50;;;;;;4995259;28;20252;-66
2023/07/05 06:04:46;;;;;;;1.80;1.70;;;23.40;39.40;;;;;;4995456;28;20222;-66
2023/07/05 06:07:11;;;;;;;1.60;1.50;;;23.50;39.50;;;;;;4996296;28;20456;-67
2023/07/05 06:09:46;;;;;;;1.90;1.80;;;23.40;39.30;;;;;;4996450;28;20938;-66
2023/07/05 06:12:12;;;;;;;1.87;1.77;;;23.40;39.30;;;;;;4994543;28;20313;-67
2023/07/05 06:14:38;;;;;;;1.90;1.67;;;23.40;39.30;;;;;;4998355;28;20554;-66
2023/07/05 06:17:03;;;;;;;1.60;1.50;;;23.40;39.30;;;;;;4994930;28;20916;-67
2023/07/05 06:19:29;;;;;;;2.00;1.80;;;23.40;39.20;;;;;;4995617;28;20240;-66
2023/07/05 06:21:54;;;;;;;2.30;1.83;;;23.40;39.20;;;;;;4994189;28;20289;-67
2023/07/05 06:24:20;;;;;;;2.23;1.80;;;23.40;39.20;;;;;;5001381;28;20762;-66
2023/07/05 06:26:45;;;;;;;1.70;1.60;;;23.40;39.20;;;;;;4992415;28;20310;-66
2023/07/05 06:29:11;;;;;;;1.97;1.60;;;23.40;39.20;;;;;;4997308;28;20235;-67
2023/07/05 06:31:36;;;;;;;2.67;1.70;;;23.40;39.10;;;;;;4994233;28;20234;-66
2023/07/05 06:34:02;;;;;;;1.70;1.60;;;23.40;39.20;;;;;;4995507;28;21121;-66
2023/07/05 06:36:27;;;;;;;1.50;1.40;;;23.40;39.10;;;;;;4987649;28;20246;-65
2023/07/05 06:38:53;;;;;;;1.60;1.50;;;23.40;39.10;;;;;;4992339;28;20254;-66
2023/07/05 06:41:18;;;;;;;1.60;1.50;;;23.40;39.00;;;;;;4988883;28;20231;-66
2023/07/05 06:43:44;;;;;;;2.33;1.60;;;23.40;39.00;;;;;;4991840;28;20278;-66
2023/07/05 06:46:10;;;;;;;1.60;1.50;;;23.40;39.00;;;;;;4988046;28;20228;-66
2023/07/05 06:48:36;;;;;;;3.10;1.90;;;23.40;39.00;;;;;;4988352;28;20250;-66
2023/07/05 06:51:01;;;;;;;1.70;1.60;;;23.40;38.90;;;;;;4988658;28;20880;-66
2023/07/05 06:53:27;;;;;;;1.60;1.47;;;23.40;38.80;;;;;;4987050;28;20243;-66
2023/07/05 06:55:53;;;;;;;1.63;1.53;;;23.40;38.80;;;;;;4970034;28;21647;-66
2023/07/05 06:58:19;;;;;;;1.40;1.30;;;23.50;38.80;;;;;;4986098;28;20273;-65
2023/07/05 07:00:50;;;;;;;1.90;1.40;;;23.40;38.70;;;;;;4988536;28;20326;-65
2023/07/05 07:03:16;;;;;;;2.53;1.70;;;23.40;38.70;;;;;;4989105;28;20968;-66
2023/07/05 07:05:52;;;;;;;1.90;1.50;;;23.40;38.60;;;;;;4984271;28;20553;-67
2023/07/05 07:08:18;;;;;;;1.70;1.60;;;23.50;38.70;;;;;;4987580;28;20461;-65
2023/07/05 07:10:44;;;;;;;1.10;1.00;;;23.40;38.60;;;;;;4990559;28;20460;-66
2023/07/05 07:13:09;;;;;;;1.40;1.30;;;23.40;38.50;;;;;;4985997;28;20491;-66
2023/07/05 07:15:36;;;;;;;1.50;1.40;;;23.40;38.50;;;;;;4987669;28;20337;-66
2023/07/05 07:18:02;;;;;;;1.30;1.20;;;23.40;38.40;;;;;;4989284;28;20277;-66
2023/07/05 07:20:27;;;;;;;1.50;1.40;;;23.40;38.30;;;;;;4988104;28;20480;-66
2023/07/05 07:22:53;;;;;;;1.63;1.53;;;23.40;38.30;;;;;;4989086;28;20454;-66
2023/07/05 07:25:18;;;;;;;1.57;1.47;;;23.40;38.30;;;;;;4986385;28;20222;-66
2023/07/05 07:27:44;;;;;;;1.60;1.50;;;23.40;38.20;;;;;;4989243;28;20232;-66
2023/07/05 07:30:10;;;;;;;1.67;1.33;;;23.40;38.20;;;;;;4990076;28;20816;-66
2023/07/05 07:32:36;;;;;;;1.20;1.10;;;23.40;38.20;;;;;;4987439;28;20228;-66
2023/07/05 07:35:01;;;;;;;1.77;1.13;;;23.40;38.20;;;;;;4987164;28;20832;-66
2023/07/05 07:37:27;;;;;;;1.30;1.20;;;23.40;38.10;;;;;;4984787;28;20583;-65
2023/07/05 07:39:52;;;;;;;1.33;1.23;;;23.40;38.10;;;;;;4988270;28;20219;-65
2023/07/05 07:42:18;;;;;;;1.30;1.20;;;23.40;38.00;;;;;;4988477;28;21151;-66
2023/07/05 07:44:43;;;;;;;1.50;1.40;;;23.50;38.10;;;;;;4987582;28;20219;-66
2023/07/05 07:47:09;;;;;;;1.30;1.20;;;23.40;38.00;;;;;;4968607;28;20315;-66
2023/07/05 07:49:34;;;;;;;1.27;1.17;;;23.40;38.00;;;;;;4984105;28;20220;-65
2023/07/05 07:52:00;;;;;;;1.30;1.20;;;23.40;38.00;;;;;;4984371;28;20234;-66
2023/07/05 07:54:28;;;;;;;1.30;1.20;;;23.40;37.90;;;;;;4984526;28;20319;-66
2023/07/05 07:56:55;;;;;;;1.30;1.20;;;23.40;37.90;;;;;;4985262;28;20343;-65
2023/07/05 07:59:21;;;;;;;1.67;1.20;;;23.40;37.90;;;;;;4980601;28;20565;-66
2023/07/05 08:01:47;;;;;;;1.23;1.13;;;23.50;38.00;;;;;;4985011;28;20463;-66
2023/07/05 08:04:14;;;;;;;1.93;1.30;;;23.40;37.80;;;;;;4988449;28;21123;-67
2023/07/05 08:06:45;;;;;;;1.50;1.30;;;23.40;37.90;;;;;;4986330;28;20238;-66
2023/07/05 08:09:14;;;;;;;1.23;1.13;;;23.40;37.90;;;;;;4989140;28;20481;-67
2023/07/05 08:11:40;;;;;;;1.90;1.30;;;23.40;37.80;;;;;;4987093;28;20457;-65
2023/07/05 08:14:06;;;;;;;1.10;1.00;;;23.40;37.80;;;;;;4987931;28;28484;-65
2023/07/05 08:16:32;;;;;;;1.27;1.17;;;23.40;37.80;;;;;;4985826;28;21641;-65
2023/07/05 08:18:58;;;;;;;1.30;1.10;;;23.40;37.80;;;;;;4984867;28;20465;-65
2023/07/05 08:21:24;;;;;;;1.30;1.20;;;23.40;37.90;;;;;;4986347;28;20555;-66
2023/07/05 08:23:49;;;;;;;1.40;1.30;;;23.40;37.80;;;;;;4987263;28;20234;-65
2023/07/05 08:26:15;;;;;;;1.30;1.20;;;23.40;37.70;;;;;;4988428;28;21540;-65
2023/07/05 08:28:41;;;;;;;1.50;1.20;;;23.40;37.70;;;;;;4989062;28;20238;-63
2023/07/05 08:31:08;;;;;;;2.07;1.20;;;23.40;37.70;;;;;;4985421;28;20306;-64
2023/07/05 08:33:36;;;;;;;1.77;1.03;;;23.40;37.60;;;;;;4987560;28;20465;-63
2023/07/05 08:36:07;;;;;;;2.70;0.90;;;23.40;37.60;;;;;;4990160;28;20467;-64
2023/07/05 08:38:33;;;;;;;1.30;1.20;;;23.40;37.60;;;;;;4987087;28;20906;-64
2023/07/05 08:41:40;;;;;;;4.90;1.20;;;23.40;37.70;;;;;;4985067;28;20453;-64
2023/07/05 08:44:14;;;;;;;1.47;1.37;;;23.40;37.50;;;;;;4972487;28;21120;-63
2023/07/05 08:46:43;;;;;;;2.27;1.37;;;23.40;37.50;;;;;;4985176;28;20514;-64
2023/07/05 08:49:22;;;;;;;1.20;1.10;;;23.40;37.50;;;;;;4985191;28;20479;-62
2023/07/05 08:51:48;;;;;;;3.33;1.00;;;23.40;37.40;;;;;;4987665;28;20461;-62
2023/07/05 08:54:16;;;;;;;1.40;1.10;;;23.40;37.40;;;;;;4986264;28;20522;-63
2023/07/05 08:56:51;;;;;;;1.40;1.03;;;23.40;37.40;;;;;;4984938;28;20460;-62
2023/07/05 08:59:30;;;;;;;1.13;1.03;;;23.40;37.30;;;;;;4986362;28;20469;-63
2023/07/05 09:01:57;;;;;;;1.63;1.00;;;23.40;38.10;;;;;;4984521;28;21112;-65
2023/07/05 09:04:32;;;;;;;1.10;1.00;;;23.40;37.30;;;;;;4986872;28;20488;-65
2023/07/05 09:07:28;;;;;;;1.67;1.20;;;23.40;37.30;;;;;;4985155;28;20467;-65
2023/07/05 09:10:05;;;;;;;1.60;1.37;;;23.40;37.20;;;;;;4986084;28;20453;-64
2023/07/05 09:12:39;;;;;;;1.17;1.00;;;23.40;37.30;;;;;;4981892;28;20465;-64
2023/07/05 09:15:29;;;;;;;1.20;1.10;;;23.40;37.30;;;;;;4985301;28;20568;-65
2023/07/05 09:18:18;;;;;;;2.03;1.10;;;23.40;37.30;;;;;;4981121;28;20476;-66
2023/07/05 09:20:51;;;;;;;1.00;0.90;;;23.40;37.30;;;;;;4957491;28;20466;-64
2023/07/05 09:23:42;;;;;;;1.10;1.00;;;23.40;37.30;;;;;;4962977;28;20472;-64
2023/07/05 09:26:29;;;;;;;2.93;1.07;;;23.40;37.30;;;;;;4966834;28;20469;-65
2023/07/05 09:29:13;;;;;;;3.73;1.17;;;23.40;37.30;;;;;;4969641;28;20560;-65
2023/07/05 09:31:39;;;;;;;2.27;1.23;;;23.40;37.30;;;;;;4980297;28;20569;-65
2023/07/05 09:34:32;;;;;;;1.40;1.30;;;23.40;37.30;;;;;;4968290;28;20555;-64
2023/07/05 09:36:59;;;;;;;1.40;1.30;;;23.40;37.40;;;;;;4964847;28;21349;-65
2023/07/05 09:39:36;;;;;;;1.53;1.30;;;23.40;37.40;;;;;;4965278;28;20466;-64
2023/07/05 09:42:06;;;;;;;1.50;1.30;;;23.40;37.30;;;;;;4959594;28;20989;-65
2023/07/05 09:44:31;;;;;;;2.40;1.30;;;23.40;37.30;;;;;;4964474;28;20450;-65
2023/07/05 09:46:58;;;;;;;1.20;1.10;;;23.40;37.20;;;;;;4964325;28;21729;-65
2023/07/05 09:49:25;;;;;;;1.20;1.10;;;23.40;37.20;;;;;;4966967;28;20242;-65
2023/07/05 09:51:52;;;;;;;1.77;1.30;;;23.40;37.20;;;;;;4959424;28;20461;-64
2023/07/05 09:54:29;;;;;;;1.30;1.20;;;23.40;37.10;;;;;;4966479;28;20474;-65
2023/07/05 09:56:58;;;;;;;1.70;1.10;;;23.40;37.10;;;;;;4962432;28;20457;-66
2023/07/05 09:59:24;;;;;;;1.47;1.37;;;23.40;37.00;;;;;;4965724;28;20457;-65
2023/07/05 10:01:54;;;;;;;3.00;1.00;;;23.40;37.00;;;;;;4966321;28;20473;-65
2023/07/05 10:04:26;;;;;;;1.10;1.00;;;23.40;36.70;;;;;;4967350;28;20224;-65
2023/07/05 10:06:52;;;;;;;1.13;1.03;;;23.40;36.70;;;;;;4962584;28;20981;-65
2023/07/05 10:09:21;;;;;;;2.03;1.20;;;23.40;36.60;;;;;;4967337;28;20954;-65
2023/07/05 10:11:51;;;;;;;2.03;1.33;;;23.40;36.60;;;;;;4962975;28;21013;-65
2023/07/05 10:14:20;;;;;;;4.13;1.00;;;23.40;36.60;;;;;;4965935;28;20484;-65
2023/07/05 10:16:46;;;;;;;1.30;1.20;;;23.40;36.60;;;;;;4966931;28;20549;-65
2023/07/05 10:19:26;;;;;;;1.13;1.00;;;23.40;36.60;;;;;;4979982;28;20469;-67
2023/07/05 10:22:03;;;;;;;0.97;0.87;;;23.40;36.60;;;;;;4984478;28;20223;-64
2023/07/05 10:24:31;;;;;;;1.63;1.10;;;23.40;36.70;;;;;;4992647;28;20508;-66
2023/07/05 10:27:09;;;;;;;2.07;1.10;;;23.40;36.60;;;;;;4985540;28;20459;-66
2023/07/05 10:29:36;;;;;;;1.10;1.00;;;23.40;36.70;;;;;;4986687;28;20472;-66
2023/07/05 10:32:02;;;;;;;3.70;1.20;;;23.40;36.60;;;;;;4987293;28;20465;-65
2023/07/05 10:34:27;;;;;;;1.93;1.10;;;23.40;36.60;;;;;;4972053;28;20500;-65
2023/07/05 10:36:54;;;;;;;1.20;1.10;;;23.40;36.70;;;;;;4984763;28;20215;-65
2023/07/05 10:39:26;;;;;;;2.00;1.43;;;23.40;36.60;;;;;;4984790;28;20223;-66
2023/07/05 10:41:57;;;;;;;7.33;1.73;;;23.50;36.70;;;;;;4983303;28;20457;-66
2023/07/05 10:44:32;;;;;;;5.40;1.30;;;23.50;36.70;;;;;;4981356;28;20476;-66
2023/07/05 10:46:59;;;;;;;2.70;1.50;;;23.50;36.70;;;;;;4985680;28;20468;-66
2023/07/05 10:49:27;;;;;;;1.57;1.20;;;23.50;36.70;;;;;;4990241;28;20624;-66
2023/07/05 10:51:57;;;;;;;1.30;1.20;;;23.50;36.80;;;;;;4984226;28;21091;-66
2023/07/05 10:54:22;;;;;;;1.07;0.97;;;23.50;36.70;;;;;;4984043;28;21044;-65
2023/07/05 10:56:49;;;;;;;1.30;1.10;;;23.40;36.70;;;;;;4983102;28;20457;-66
2023/07/05 10:59:26;;;;;;;1.20;1.10;;;23.40;36.60;;;;;;4990854;28;20330;-66
2023/07/05 11:01:56;;;;;;;1.03;1.03;;;23.50;36.70;;;;;;4982781;28;20503;-66
2023/07/05 11:04:28;;;;;;;3.70;1.20;;;23.40;36.60;;;;;;4983123;28;20523;-65
2023/07/05 11:07:00;;;;;;;2.50;1.30;;;23.40;36.70;;;;;;4980683;28;20460;-66
2023/07/05 11:09:26;;;;;;;9.03;1.50;;;23.40;36.60;;;;;;4982222;28;20464;-66
2023/07/05 11:11:58;;;;;;;1.30;1.20;;;23.40;36.60;;;;;;4984305;28;20456;-66
2023/07/05 11:14:28;;;;;;;1.70;1.20;;;23.40;36.70;;;;;;4988577;28;20589;-65
2023/07/05 11:16:55;;;;;;;1.43;1.20;;;23.40;36.60;;;;;;4985305;28;20556;-66
2023/07/05 11:19:29;;;;;;;2.00;1.50;;;23.40;36.60;;;;;;4983860;28;20489;-67
2023/07/05 11:21:54;;;;;;;1.43;1.20;;;23.50;36.70;;;;;;4985537;28;20563;-67
2023/07/05 11:24:38;;;;;;;0.90;0.90;;;23.40;36.60;;;;;;4985136;28;20462;-66
2023/07/05 11:27:23;;;;;;;1.20;1.10;;;23.40;36.70;;;;;;4986109;28;20289;-66
2023/07/05 11:29:51;;;;;;;1.40;1.27;;;23.40;36.60;;;;;;4986573;28;20451;-66
2023/07/05 11:32:18;;;;;;;1.43;1.20;;;23.40;36.60;;;;;;4971240;28;20546;-66
2023/07/05 11:34:49;;;;;;;2.20;1.07;;;23.50;36.80;;;;;;4986973;28;20531;-66
2023/07/05 11:37:15;;;;;;;1.50;1.17;;;23.40;36.60;;;;;;4985791;28;20457;-65
2023/07/05 11:39:41;;;;;;;3.17;1.20;;;23.40;36.60;;;;;;4986737;28;20456;-66
2023/07/05 11:42:13;;;;;;;1.33;1.23;;;23.40;36.60;;;;;;4983069;28;20642;-66
2023/07/05 11:44:41;;;;;;;1.77;1.30;;;23.50;36.80;;;;;;4979023;28;20560;-65
2023/07/05 11:47:10;;;;;;;1.23;1.13;;;23.50;36.80;;;;;;4978259;28;20471;-65
2023/07/05 11:49:42;;;;;;;2.30;1.10;;;23.40;36.60;;;;;;4981317;28;20456;-66
2023/07/05 11:52:18;;;;;;;1.03;0.93;;;23.40;36.60;;;;;;4983689;28;20460;-67
2023/07/05 11:54:54;;;;;;;4.33;1.40;;;23.50;36.80;;;;;;4985832;28;20479;-66
2023/07/05 11:57:20;;;;;;;2.30;1.20;;;23.40;36.60;;;;;;4977675;28;20456;-66
2023/07/05 12:00:12;;;;;;;3.80;1.10;;;23.50;36.70;;;;;;4985441;28;20464;-66
2023/07/05 12:02:53;;;;;;;2.50;1.37;;;23.50;36.70;;;;;;4983685;28;20464;-66
2023/07/05 12:05:22;;;;;;;1.27;1.10;;;23.40;36.60;;;;;;4987721;28;20482;-66
2023/07/05 12:07:56;;;;;;;1.40;1.30;;;23.40;36.70;;;;;;4985603;28;20987;-66
2023/07/05 12:10:26;;;;;;;1.20;1.10;;;23.50;36.80;;;;;;4987360;28;20956;-66
2023/07/05 12:12:52;;;;;;;1.50;1.00;;;23.50;36.70;;;;;;4986478;28;20457;-66
2023/07/05 12:15:18;;;;;;;2.23;1.27;;;23.40;36.70;;;;;;4985596;28;20770;-66
2023/07/05 12:17:45;;;;;;;1.30;1.20;;;23.50;36.80;;;;;;4988267;28;21153;-66
2023/07/05 12:20:48;;;;;;;1.20;1.10;;;23.50;36.80;;;;;;4986274;28;21262;-66
2023/07/05 12:23:18;;;;;;;2.17;1.00;;;23.50;36.80;;;;;;4926940;28;20654;-66
2023/07/05 12:25:52;;;;;;;1.30;1.20;;;23.50;36.70;;;;;;4975880;28;20510;-66
2023/07/05 12:28:22;;;;;;;1.30;1.20;;;23.40;36.60;;;;;;4987591;28;20808;-66
2023/07/05 12:30:48;;;;;;;1.30;1.03;;;23.40;36.60;;;;;;4984515;28;20493;-66
2023/07/05 12:33:23;;;;;;;1.37;1.27;;;23.40;36.60;;;;;;4980409;28;20477;-66
2023/07/05 12:36:08;;;;;;;1.17;1.07;;;23.50;36.80;;;;;;4985430;28;20234;-66
2023/07/05 12:38:34;;;;;;;3.97;1.20;;;23.40;36.70;;;;;;4987650;28;20450;-66
2023/07/05 12:41:01;;;;;;;1.30;1.20;;;23.40;36.60;;;;;;4982422;28;20871;-66
2023/07/05 12:43:32;;;;;;;1.17;1.07;;;23.50;36.70;;;;;;4994806;28;20446;-66
2023/07/05 12:46:13;;;;;;;3.23;1.53;;;23.40;36.60;;;;;;4992997;28;20940;-65
2023/07/05 12:48:38;;;;;;;1.13;1.03;;;23.40;36.60;;;;;;4994566;28;20462;-66
2023/07/05 12:51:06;;;;;;;1.73;1.10;;;23.40;36.70;;;;;;4994927;28;21202;-66
2023/07/05 12:53:32;;;;;;;1.40;1.30;;;23.40;36.60;;;;;;4996928;28;20694;-66
2023/07/05 12:56:08;;;;;;;1.10;1.00;;;23.40;36.60;;;;;;4994936;28;20992;-66
2023/07/05 12:58:35;;;;;;;1.80;1.43;;;23.50;36.70;;;;;;4994115;28;20459;-64
2023/07/05 13:01:01;;;;;;;1.63;1.10;;;23.40;36.60;;;;;;4991968;28;21869;-65